Time;durP1;ratioP1;P1;durP2;ratioP2;P2;SDS_P1;SDS_P2;PMS_P1;PMS_P2;Temp;Humidity;BMP_temperature;BMP_pressure;BME280_temperature;BME280_humidity;BME280_pressure;Samples;Min_cycle;Max_cycle;Signal;HPM_P1;HPM_P2
2022/01/20 00:02:17;;;;;;;2.83;1.35;;;;;;;1.96;81.02;98028.47;5026444;28;20417;-60
2022/01/20 00:05:03;;;;;;;3.58;1.38;;;;;;;1.99;80.88;98024.59;5025819;28;20041;-60
2022/01/20 00:07:41;;;;;;;2.20;1.35;;;;;;;2.02;80.48;98024.22;5011200;28;20033;-60
2022/01/20 00:26:54;;;;;;;2.33;0.90;;;;;;;1.96;80.78;98033.81;5025704;28;20042;-60
2022/01/20 00:29:30;;;;;;;1.67;0.90;;;;;;;1.93;82.36;98040.34;5026660;28;20531;-61
2022/01/20 00:32:06;;;;;;;2.22;0.90;;;;;;;1.97;82.44;98035.47;5024907;28;20296;-59
2022/01/20 00:35:07;;;;;;;1.70;0.77;;;;;;;1.85;82.64;98040.41;5018723;28;20037;-59
2022/01/20 00:37:31;;;;;;;1.40;0.77;;;;;;;1.82;82.60;98038.09;5025774;28;20044;-60
2022/01/20 00:39:58;;;;;;;2.85;1.42;;;;;;;1.61;84.11;98047.56;5025577;28;20048;-60
2022/01/20 00:42:26;;;;;;;2.00;0.90;;;;;;;1.62;84.31;98048.41;5024577;28;20136;-61
2022/01/20 00:44:52;;;;;;;1.65;0.90;;;;;;;1.56;84.48;98053.44;5025623;28;20049;-59
2022/01/20 00:47:20;;;;;;;2.08;0.90;;;;;;;1.68;84.29;98055.69;5025164;28;20076;-60
2022/01/20 00:49:47;;;;;;;1.38;0.77;;;;;;;1.69;84.46;98058.19;5024855;28;20513;-61
2022/01/20 00:52:14;;;;;;;1.55;0.80;;;;;;;1.78;83.83;98061.66;5025909;28;20045;-61
2022/01/20 00:54:41;;;;;;;1.88;0.70;;;;;;;1.63;85.02;98068.75;5024373;28;20060;-60
2022/01/20 00:57:07;;;;;;;1.63;0.60;;;;;;;1.68;85.29;98069.88;5025792;28;20045;-62
2022/01/20 00:59:34;;;;;;;1.90;0.80;;;;;;;1.68;85.02;98071.72;5024948;28;20060;-59
2022/01/20 01:02:05;;;;;;;1.45;0.82;;;;;;;1.55;85.44;98070.47;5026273;28;20049;-61
2022/01/20 01:04:31;;;;;;;2.17;0.97;;;;;;;1.56;85.39;98073.97;5025419;28;20107;-62
2022/01/20 01:07:17;;;;;;;1.00;0.60;;;;;;;1.57;85.06;98075.63;5039746;28;20079;-61
2022/01/20 01:09:45;;;;;;;1.27;0.65;;;;;;;1.63;85.52;98080.28;5032871;28;20051;-62
2022/01/20 01:12:17;;;;;;;1.00;0.60;;;;;;;1.62;84.47;98081.25;5033908;28;20052;-61
2022/01/20 01:14:49;;;;;;;0.93;0.40;;;;;;;1.61;85.08;98076.94;5023744;28;20053;-61
2022/01/20 01:20:18;;;;;;;1.58;0.70;;;;;;;1.62;84.94;98075.91;5025720;28;20048;-60
2022/01/20 01:22:35;;;;;;;1.10;0.60;;;;;;;1.56;85.24;98080.13;5033386;28;20045;-60
2022/01/20 01:25:03;;;;;;;1.40;0.80;;;;;;;1.48;86.25;98080.19;5025155;28;20041;-62
2022/01/20 01:27:34;;;;;;;1.80;0.80;;;;;;;1.48;86.18;98088.22;5025258;28;20053;-59
2022/01/20 01:30:12;;;;;;;1.08;0.50;;;;;;;1.65;84.39;98088.09;5024309;28;20468;-62
2022/01/20 01:32:50;;;;;;;0.70;0.38;;;;;;;1.67;84.30;98086.09;5024273;28;20136;-60
2022/01/20 01:35:21;;;;;;;0.85;0.50;;;;;;;1.63;84.66;98077.59;5024563;28;20485;-60
2022/01/20 01:40:29;;;;;;;0.47;0.43;;;;;;;1.68;84.00;98079.72;5036047;28;20133;-61
2022/01/20 01:42:57;;;;;;;1.92;0.68;;;;;;;1.57;84.84;98080.97;5032698;28;20041;-60
2022/01/20 01:45:33;;;;;;;1.52;0.77;;;;;;;1.65;83.68;98070.25;5035842;28;20038;-61
2022/01/20 01:48:02;;;;;;;1.42;0.63;;;;;;;1.68;83.73;98082.41;5028122;28;20136;-62
2022/01/20 01:50:29;;;;;;;0.90;0.50;;;;;;;1.72;83.77;98081.03;5027929;28;20052;-62
2022/01/20 01:52:58;;;;;;;0.57;0.40;;;;;;;1.68;83.67;98087.75;5031483;28;20049;-59
2022/01/20 01:55:25;;;;;;;0.75;0.50;;;;;;;1.72;83.83;98088.22;5038790;28;20511;-61
2022/01/20 01:57:52;;;;;;;0.68;0.40;;;;;;;1.66;83.81;98085.25;5044596;28;20052;-61
2022/01/20 02:00:21;;;;;;;1.17;0.73;;;;;;;1.71;83.86;98084.72;5027568;28;20053;-62
2022/01/20 02:02:56;;;;;;;1.20;0.60;;;;;;;1.60;84.54;98083.28;5028186;28;20045;-61
2022/01/20 02:05:49;;;;;;;1.02;0.60;;;;;;;1.71;83.88;98095.41;5026926;28;20038;-62
2022/01/20 02:19:09;;;;;;;1.58;0.90;;;;;;;1.70;84.30;98061.72;5026662;28;20057;-61
2022/01/20 02:21:53;;;;;;;1.60;0.80;;;;;;;1.66;84.69;98055.06;5027510;28;20111;-61
2022/01/20 02:24:23;;;;;;;1.92;0.80;;;;;;;1.71;84.15;98047.34;5027635;28;20140;-61
2022/01/20 02:26:50;;;;;;;1.67;1.00;;;;;;;1.62;84.83;98059.09;5028042;28;20042;-61
2022/01/20 02:29:21;;;;;;;1.73;0.60;;;;;;;1.58;84.81;98055.13;5027208;28;20061;-60
2022/01/20 02:31:59;;;;;;;1.80;1.00;;;;;;;1.57;85.26;98051.59;5027284;28;20473;-60
2022/01/20 02:34:31;;;;;;;1.52;0.88;;;;;;;1.65;84.23;98067.56;5026594;28;20107;-60
2022/01/20 02:37:01;;;;;;;1.77;1.02;;;;;;;1.63;84.68;98079.44;5011344;28;20053;-60
2022/01/20 02:44:56;;;;;;;3.30;1.55;;;;;;;1.51;85.17;98084.34;5023847;28;20045;-61
2022/01/20 02:47:27;;;;;;;3.60;1.75;;;;;;;1.55;85.21;98081.13;5012681;28;20536;-62
2022/01/20 02:49:54;;;;;;;2.97;1.45;;;;;;;1.55;84.90;98083.81;5027297;28;20038;-62
2022/01/20 02:52:23;;;;;;;3.15;1.35;;;;;;;1.68;84.64;98077.91;5025352;28;20060;-60
2022/01/20 02:54:50;;;;;;;2.08;1.30;;;;;;;1.60;84.47;98063.75;5036430;28;20045;-61
2022/01/20 02:57:18;;;;;;;1.98;1.10;;;;;;;1.55;84.70;98080.31;5027466;28;20068;-61
2022/01/20 02:59:45;;;;;;;2.78;1.27;;;;;;;1.58;84.79;98069.28;5027402;28;20033;-62
2022/01/20 03:02:12;;;;;;;2.75;1.10;;;;;;;1.55;84.89;98073.13;5025387;28;20068;-61
2022/01/20 03:04:39;;;;;;;2.55;1.40;;;;;;;1.48;85.36;98085.53;5026058;28;20041;-62
2022/01/20 03:07:19;;;;;;;2.78;1.52;;;;;;;1.53;85.41;98074.31;5025967;28;20535;-61
2022/01/20 03:09:45;;;;;;;4.68;1.40;;;;;;;1.50;85.24;98078.16;5026308;28;20682;-61
2022/01/20 03:12:12;;;;;;;2.92;1.65;;;;;;;1.40;86.39;98073.06;5025628;28;20046;-60
2022/01/20 03:14:39;;;;;;;2.72;1.33;;;;;;;1.33;85.93;98082.78;5026191;28;20080;-61
2022/01/20 03:17:07;;;;;;;3.00;1.90;;;;;;;1.40;86.16;98073.06;5025070;28;20049;-61
2022/01/20 03:19:35;;;;;;;2.75;1.65;;;;;;;1.43;86.21;98082.53;5026372;28;20076;-62
2022/01/20 03:22:02;;;;;;;2.97;1.60;;;;;;;1.41;85.81;98084.56;5021341;28;20136;-61
2022/01/20 03:24:31;;;;;;;3.05;1.75;;;;;;;1.35;85.94;98075.41;5021870;28;20041;-61
2022/01/20 03:26:58;;;;;;;2.63;1.35;;;;;;;1.48;85.57;98085.53;5027072;28;20220;-62
2022/01/20 03:29:25;;;;;;;2.55;1.40;;;;;;;1.52;85.26;98084.16;5026349;28;20124;-61
2022/01/20 03:31:51;;;;;;;3.15;1.83;;;;;;;1.39;85.68;98081.22;5027732;28;20575;-61
2022/01/20 03:34:21;;;;;;;2.88;1.35;;;;;;;1.41;85.71;98085.38;5025283;28;20045;-60
2022/01/20 03:36:52;;;;;;;3.53;1.73;;;;;;;1.33;86.77;98080.13;5025034;28;20065;-61
2022/01/20 03:39:24;;;;;;;4.68;2.22;;;;;;;1.33;86.33;98071.28;5026009;28;20139;-61
2022/01/20 03:41:50;;;;;;;4.22;1.73;;;;;;;1.42;86.08;98073.72;5024923;28;20578;-60
2022/01/20 03:44:21;;;;;;;3.40;1.75;;;;;;;1.46;85.46;98065.34;5025564;28;20049;-61
2022/01/20 03:46:48;;;;;;;3.30;1.40;;;;;;;1.36;86.24;98068.25;5025695;28;20045;-61
2022/01/20 03:52:14;;;;;;;2.85;1.33;;;;;;;1.48;85.12;98066.00;5014301;28;20583;-61
2022/01/20 03:54:41;;;;;;;2.53;1.48;;;;;;;1.40;85.54;98072.25;5047232;28;20077;-59
2022/01/20 03:57:17;;;;;;;3.58;1.48;;;;;;;1.43;85.22;98064.69;5025788;28;20045;-60
2022/01/20 03:59:59;;;;;;;3.40;1.80;;;;;;;1.31;86.19;98071.44;5025984;28;20524;-61
2022/01/20 04:02:47;;;;;;;3.88;1.88;;;;;;;1.19;86.90;98078.16;5025201;28;20044;-60
2022/01/20 04:06:05;;;;;;;3.83;1.88;;;;;;;1.11;87.38;98085.19;5018693;28;20042;-60
2022/01/20 04:08:44;;;;;;;3.63;1.70;;;;;;;1.19;87.17;98091.50;5025113;28;20136;-62
2022/01/20 04:11:16;;;;;;;3.53;1.63;;;;;;;1.30;86.94;98091.13;5025808;28;20037;-61
2022/01/20 04:13:43;;;;;;;4.00;1.90;;;;;;;1.33;86.19;98085.44;5025268;28;20037;-61
2022/01/20 04:16:38;;;;;;;3.58;1.75;;;;;;;1.38;85.97;98088.44;5025057;28;20041;-60
2022/01/20 04:19:10;;;;;;;4.22;1.90;;;;;;;1.42;85.78;98088.88;5024275;28;20636;-61
2022/01/20 04:21:39;;;;;;;3.40;1.90;;;;;;;1.26;86.92;98090.63;5024328;28;20091;-62
2022/01/20 04:24:07;;;;;;;3.38;1.90;;;;;;;1.31;86.19;98082.13;5024753;28;20057;-61
2022/01/20 04:26:35;;;;;;;4.22;2.00;;;;;;;1.32;86.86;98083.78;5023912;28;20037;-61
2022/01/20 04:29:06;;;;;;;2.72;1.52;;;;;;;1.41;86.18;98096.06;5024773;28;20045;-62
2022/01/20 04:31:35;;;;;;;4.47;2.03;;;;;;;1.28;86.24;98096.63;5024534;28;20048;-60
2022/01/20 04:34:04;;;;;;;3.72;1.77;;;;;;;1.24;86.73;98102.47;5025507;28;20448;-62
2022/01/20 04:36:35;;;;;;;4.63;2.63;;;;;;;1.20;86.56;98091.34;5024163;28;20141;-64
2022/01/20 04:39:07;;;;;;;4.40;2.17;;;;;;;1.19;87.21;98096.84;5024357;28;20069;-64
2022/01/20 04:41:35;;;;;;;3.95;1.88;;;;;;;1.21;86.98;98094.84;5033786;28;20055;-63
2022/01/20 04:44:08;;;;;;;4.63;2.10;;;;;;;1.12;87.41;98099.38;5018153;28;20041;-64
2022/01/20 04:47:01;;;;;;;4.75;2.67;;;;;;;1.08;87.76;98098.91;5025811;28;20029;-64
2022/01/20 04:57:44;;;;;;;4.57;2.22;;;;;;;0.99;88.21;98094.59;5012203;28;20060;-64
2022/01/20 05:00:11;;;;;;;5.35;2.20;;;;;;;0.89;88.65;98086.81;5024633;28;20045;-64
2022/01/20 05:02:57;;;;;;;4.45;2.15;;;;;;;0.85;89.42;98094.28;5025815;28;20515;-64
2022/01/20 05:05:30;;;;;;;4.40;2.00;;;;;;;1.01;88.31;98089.91;5008918;28;20092;-63
2022/01/20 05:08:04;;;;;;;3.17;1.60;;;;;;;1.09;88.17;98094.38;5025055;28;20133;-64
2022/01/20 05:10:33;;;;;;;4.85;2.45;;;;;;;1.04;88.59;98097.56;5030268;28;20464;-64
2022/01/20 05:13:09;;;;;;;5.15;2.58;;;;;;;0.90;88.48;98097.28;5046900;28;20530;-64
2022/01/20 05:15:39;;;;;;;4.82;2.70;;;;;;;0.77;89.53;98087.16;5030236;28;20057;-63
2022/01/20 05:18:06;;;;;;;4.45;2.00;;;;;;;0.90;88.73;98086.63;5031024;28;20077;-63
2022/01/20 05:20:33;;;;;;;4.10;2.17;;;;;;;0.97;88.40;98078.78;5030656;28;20461;-63
2022/01/20 05:23:00;;;;;;;6.72;2.70;;;;;;;0.95;89.13;98088.75;5030169;28;20068;-63
2022/01/20 05:25:28;;;;;;;4.50;2.00;;;;;;;1.06;88.67;98084.88;5030135;28;20084;-65
2022/01/20 05:27:55;;;;;;;4.25;2.33;;;;;;;1.01;87.69;98081.91;5030960;28;20053;-65
2022/01/20 05:30:22;;;;;;;4.82;2.30;;;;;;;1.12;87.94;98083.38;5031065;28;20045;-63
2022/01/20 05:33:18;;;;;;;4.05;1.73;;;;;;;1.07;88.06;98091.88;5031138;28;20045;-63
2022/01/20 05:35:44;;;;;;;6.55;2.50;;;;;;;1.04;87.69;98090.38;5028467;28;20100;-64
2022/01/20 05:38:12;;;;;;;3.83;1.92;;;;;;;1.08;87.64;98092.72;5030692;28;20120;-63
2022/01/20 05:40:41;;;;;;;6.82;2.30;;;;;;;1.14;87.77;98108.88;5029541;28;20045;-63
2022/01/20 05:43:07;;;;;;;6.63;2.88;;;;;;;1.14;87.45;98114.19;5022467;28;20505;-64
2022/01/20 05:45:35;;;;;;;8.68;2.63;;;;;;;1.05;88.25;98104.56;5025969;28;20085;-65
2022/01/20 05:48:13;;;;;;;4.38;2.28;;;;;;;1.15;87.32;98107.03;5023419;28;20076;-63
2022/01/20 05:50:55;;;;;;;7.65;2.90;;;;;;;1.21;87.71;98102.84;5022999;28;20053;-64
2022/01/20 05:53:21;;;;;;;5.88;2.60;;;;;;;1.24;87.04;98108.66;5033008;28;20049;-65
2022/01/20 05:55:48;;;;;;;4.50;2.85;;;;;;;1.27;87.03;98115.47;5040296;28;20130;-64
2022/01/20 05:58:15;;;;;;;5.38;3.13;;;;;;;1.27;87.48;98112.81;5035941;28;20046;-63
2022/01/20 06:00:42;;;;;;;6.38;2.90;;;;;;;1.27;87.33;98112.81;5031946;28;20056;-63
2022/01/20 06:05:55;;;;;;;5.95;3.00;;;;;;;1.34;86.51;98104.94;5029696;28;20041;-62
2022/01/20 06:08:21;;;;;;;8.25;3.70;;;;;;;1.34;86.45;98104.94;5029758;28;20056;-64
2022/01/20 06:10:48;;;;;;;7.88;3.30;;;;;;;1.28;87.62;98111.81;5019578;28;20059;-64
2022/01/20 06:13:23;;;;;;;9.85;3.40;;;;;;;1.21;87.14;98114.34;5027271;28;20053;-62
2022/01/20 06:15:50;;;;;;;7.40;4.03;;;;;;;1.24;87.59;98113.16;5025656;28;20044;-64
2022/01/20 06:18:18;;;;;;;8.30;3.10;;;;;;;1.29;86.70;98116.97;5026309;28;20072;-65
2022/01/20 06:20:53;;;;;;;9.65;4.10;;;;;;;1.14;86.77;98122.19;5005950;28;20053;-66
2022/01/20 06:23:21;;;;;;;5.18;2.72;;;;;;;1.19;86.94;98116.34;5026190;28;20045;-63
2022/01/20 06:25:49;;;;;;;7.38;3.45;;;;;;;1.01;87.86;98111.25;5010159;28;20140;-63
2022/01/20 06:28:17;;;;;;;5.20;3.35;;;;;;;1.02;87.88;98110.25;5030900;28;20509;-62
2022/01/20 06:30:47;;;;;;;6.90;3.55;;;;;;;1.01;87.65;98121.91;5036061;28;20423;-63
2022/01/20 06:33:14;;;;;;;7.70;3.17;;;;;;;1.04;87.13;98125.06;5027114;28;20114;-62
2022/01/20 06:35:48;;;;;;;6.68;3.30;;;;;;;1.02;87.51;98127.09;5021207;28;20045;-63
2022/01/20 06:38:16;;;;;;;5.75;3.08;;;;;;;0.95;88.56;98109.28;5024188;28;20045;-62
2022/01/20 06:40:43;;;;;;;6.15;3.25;;;;;;;0.99;87.45;98094.59;5024730;28;20057;-65
2022/01/20 06:43:10;;;;;;;3.60;1.92;;;;;;;0.98;86.80;98090.25;5025694;28;20046;-63
2022/01/20 06:45:36;;;;;;;4.40;2.40;;;;;;;0.90;87.23;98097.28;5025330;28;20145;-63
2022/01/20 06:48:09;;;;;;;6.57;2.75;;;;;;;1.02;86.31;98107.56;5040440;28;20041;-64
2022/01/20 06:50:49;;;;;;;5.90;1.90;;;;;;;0.97;86.21;98104.59;5025635;28;20048;-63
2022/01/20 06:53:16;;;;;;;6.13;2.30;;;;;;;0.87;86.08;98094.13;5024875;28;20053;-65
2022/01/20 06:55:42;;;;;;;6.22;2.47;;;;;;;0.77;86.59;98096.97;5029551;28;20416;-64
2022/01/20 06:58:09;;;;;;;6.47;2.58;;;;;;;0.82;85.92;98101.81;5024703;28;20044;-63
2022/01/20 07:00:36;;;;;;;8.48;2.85;;;;;;;0.74;86.30;98113.34;5026100;28;20578;-63
2022/01/20 07:03:03;;;;;;;7.15;3.85;;;;;;;0.64;86.84;98119.69;5026411;28;20128;-65
2022/01/20 07:05:30;;;;;;;6.80;2.80;;;;;;;0.52;87.28;98113.84;5026051;28;20045;-65
2022/01/20 07:07:56;;;;;;;4.90;2.50;;;;;;;0.44;87.22;98116.53;5017501;28;20052;-63
2022/01/20 07:10:23;;;;;;;7.15;3.03;;;;;;;0.46;87.88;98114.53;5024391;28;20049;-62
2022/01/20 07:12:54;;;;;;;9.15;3.55;;;;;;;0.48;87.83;98120.53;5028010;28;20795;-63
2022/01/20 07:15:21;;;;;;;12.05;2.95;;;;;;;0.38;87.69;98112.69;5035460;28;20626;-63
2022/01/20 07:17:49;;;;;;;5.18;2.83;;;;;;;0.38;87.34;98125.22;5034749;28;20045;-64
2022/01/20 07:20:18;;;;;;;10.48;2.92;;;;;;;0.43;87.20;98117.53;5027456;28;20629;-65
2022/01/20 07:23:17;;;;;;;6.65;2.47;;;;;;;0.41;87.25;98126.69;5012577;28;20061;-64
2022/01/20 07:25:57;;;;;;;7.25;2.92;;;;;;;0.37;86.96;98143.00;5012250;28;20077;-64
2022/01/20 07:28:24;;;;;;;6.28;3.10;;;;;;;0.29;87.88;98161.66;5023772;28;20053;-63
2022/01/20 07:30:51;;;;;;;8.70;2.90;;;;;;;0.26;87.53;98167.34;5023740;28;20045;-61
2022/01/20 07:33:20;;;;;;;8.40;3.30;;;;;;;0.25;87.55;98170.97;5024490;28;20044;-63
2022/01/20 07:35:51;;;;;;;9.43;3.05;;;;;;;0.24;87.53;98167.50;5025483;28;20049;-63
2022/01/20 07:38:20;;;;;;;5.63;2.78;;;;;;;0.22;87.94;98174.00;5025064;28;20029;-63
2022/01/20 07:40:47;;;;;;;7.53;3.30;;;;;;;0.32;86.94;98187.13;5023031;28;20136;-63
2022/01/20 07:43:14;;;;;;;4.07;2.40;;;;;;;0.52;87.84;98185.00;5024966;28;20045;-55
2022/01/20 07:45:53;;;;;;;6.97;3.10;;;;;;;0.56;86.31;98191.66;5022477;28;20053;-53
2022/01/20 07:48:26;;;;;;;11.82;3.60;;;;;;;0.63;85.64;98192.63;5021275;28;20302;-56
2022/01/20 07:51:16;;;;;;;7.57;2.47;;;;;;;0.64;85.34;98189.00;5019367;28;20072;-56
2022/01/20 07:53:44;;;;;;;6.15;2.72;;;;;;;0.78;84.90;98194.63;5016664;28;20727;-57
2022/01/20 07:56:11;;;;;;;7.43;2.83;;;;;;;1.01;84.62;98185.94;5018891;28;20058;-56
2022/01/20 07:58:39;;;;;;;7.85;2.90;;;;;;;1.03;84.43;98178.56;5021443;28;20099;-56
2022/01/20 08:01:07;;;;;;;6.07;2.78;;;;;;;1.06;84.47;98186.25;5022142;28;20073;-58
2022/01/20 08:03:44;;;;;;;6.63;2.78;;;;;;;1.10;84.28;98187.56;5015205;28;20125;-57
2022/01/20 08:06:14;;;;;;;8.30;3.03;;;;;;;1.16;83.72;98191.38;5022921;28;20049;-52
2022/01/20 08:08:44;;;;;;;5.10;2.70;;;;;;;1.39;83.21;98191.47;5023261;28;20108;-55
2022/01/20 08:11:34;;;;;;;8.00;2.80;;;;;;;1.42;83.02;98195.66;5023370;28;20140;-58
2022/01/20 08:14:28;;;;;;;5.60;2.90;;;;;;;1.30;83.67;98188.00;5033085;28;20057;-57
2022/01/20 08:16:55;;;;;;;7.03;3.15;;;;;;;1.29;83.66;98193.53;5024572;28;20037;-59
2022/01/20 08:19:22;;;;;;;6.75;3.17;;;;;;;1.23;83.54;98203.06;5022583;28;20045;-55
2022/01/20 08:21:48;;;;;;;7.00;2.92;;;;;;;1.15;83.86;98182.53;5022762;28;20069;-54
2022/01/20 08:24:15;;;;;;;9.75;3.88;;;;;;;1.19;83.86;98187.53;5029884;28;20508;-54
2022/01/20 08:26:43;;;;;;;11.40;3.15;;;;;;;1.25;83.15;98190.34;5019227;28;21604;-53
2022/01/20 08:29:09;;;;;;;9.95;3.45;;;;;;;1.25;83.32;98187.69;5020813;28;20456;-53
2022/01/20 08:31:39;;;;;;;9.50;4.50;;;;;;;1.12;84.23;98187.41;5020879;28;20125;-65
2022/01/20 08:34:38;;;;;;;7.82;3.58;;;;;;;1.16;84.12;98194.91;4998534;28;20045;-67
2022/01/20 08:37:25;;;;;;;6.20;2.17;;;;;;;1.23;83.48;98184.38;5023044;28;20056;-64
2022/01/20 08:39:52;;;;;;;15.55;3.78;;;;;;;1.34;82.77;98190.34;5026342;28;20162;-65
2022/01/20 08:42:18;;;;;;;6.78;2.70;;;;;;;1.27;83.27;98182.19;5008823;28;20053;-65
2022/01/20 08:44:45;;;;;;;6.55;2.33;;;;;;;1.48;82.73;98188.78;5020311;28;20056;-68
2022/01/20 08:47:17;;;;;;;6.03;2.40;;;;;;;1.58;81.71;98191.25;5020286;28;20050;-65
2022/01/20 08:49:49;;;;;;;8.25;3.58;;;;;;;1.49;82.60;98211.78;5023021;28;20053;-65
2022/01/20 08:52:18;;;;;;;5.15;2.08;;;;;;;1.60;82.10;98210.59;5022404;28;20220;-65
2022/01/20 08:54:51;;;;;;;16.65;4.53;;;;;;;1.60;82.23;98215.94;5026385;28;20041;-65
2022/01/20 08:57:37;;;;;;;8.65;3.33;;;;;;;1.60;81.67;98224.78;5014830;28;20076;-65
2022/01/20 09:00:06;;;;;;;12.02;4.85;;;;;;;1.61;81.96;98237.13;5021239;28;20051;-66
2022/01/20 09:02:40;;;;;;;6.97;2.47;;;;;;;1.72;81.00;98245.75;5023716;28;20128;-66
2022/01/20 09:05:07;;;;;;;9.52;2.80;;;;;;;1.81;81.35;98250.88;5022869;28;20124;-66
2022/01/20 09:07:41;;;;;;;7.90;2.60;;;;;;;1.80;81.43;98251.03;5023193;28;20497;-65
2022/01/20 09:10:17;;;;;;;10.07;3.25;;;;;;;1.83;81.49;98253.38;5022867;28;20509;-66
2022/01/20 09:15:28;;;;;;;9.85;3.05;;;;;;;1.95;81.49;98270.69;5019220;28;20513;-65
2022/01/20 09:18:08;;;;;;;7.30;2.92;;;;;;;1.97;81.05;98258.97;5022306;28;20536;-67
2022/01/20 09:20:38;;;;;;;7.55;2.53;;;;;;;1.95;80.91;98257.31;5022669;28;20100;-64
2022/01/20 09:23:06;;;;;;;7.55;2.53;;;;;;;2.01;80.45;98239.78;5007569;28;20076;-66
2022/01/20 09:25:34;;;;;;;10.35;2.72;;;;;;;2.07;80.44;98233.72;5021160;28;20394;-64
2022/01/20 09:28:00;;;;;;;6.40;2.45;;;;;;;2.13;80.51;98242.06;5022689;28;20141;-64
2022/01/20 09:30:29;;;;;;;17.25;2.60;;;;;;;2.04;80.45;98230.56;5023285;28;20480;-65
2022/01/20 09:33:26;;;;;;;9.95;3.13;;;;;;;1.94;80.09;98231.63;5022680;28;20051;-65
2022/01/20 09:35:45;;;;;;;10.85;4.50;;;;;;;1.95;80.38;98230.63;5016994;28;20136;-66
2022/01/20 09:38:13;;;;;;;8.85;2.92;;;;;;;2.00;80.43;98235.44;5042611;28;20056;-65
2022/01/20 09:40:41;;;;;;;7.38;3.00;;;;;;;2.05;80.19;98229.56;5021676;28;20045;-66
2022/01/20 09:43:11;;;;;;;8.60;2.47;;;;;;;1.99;81.31;98228.41;5031688;28;20127;-65
2022/01/20 09:45:38;;;;;;;5.47;2.30;;;;;;;2.14;79.47;98241.84;5031419;28;20045;-65
2022/01/20 09:48:06;;;;;;;6.07;2.72;;;;;;;2.25;79.60;98237.94;5021853;28;20136;-66
2022/01/20 09:51:05;;;;;;;9.13;3.28;;;;;;;2.14;79.90;98247.19;5022502;28;20037;-66
2022/01/20 09:53:51;;;;;;;7.13;2.97;;;;;;;2.07;80.25;98232.91;5027781;28;20731;-65
2022/01/20 09:56:31;;;;;;;12.63;4.55;;;;;;;1.93;80.79;98232.66;5026479;28;20428;-65
2022/01/20 09:58:58;;;;;;;13.60;4.05;;;;;;;1.94;80.16;98246.81;5025246;28;20032;-65
2022/01/20 10:01:43;;;;;;;11.55;4.03;;;;;;;1.94;80.14;98239.66;5025424;28;20136;-66
2022/01/20 10:04:32;;;;;;;8.95;3.55;;;;;;;2.00;80.88;98247.97;5038884;28;20136;-65
2022/01/20 10:07:11;;;;;;;10.07;2.88;;;;;;;1.88;81.77;98237.66;5021956;28;20041;-65
2022/01/20 10:09:47;;;;;;;15.30;5.53;;;;;;;1.82;81.98;98262.41;5024935;28;20049;-66
2022/01/20 10:12:28;;;;;;;11.52;2.97;;;;;;;1.85;81.23;98259.41;5024542;28;20045;-66
2022/01/20 10:14:58;;;;;;;9.93;3.53;;;;;;;1.79;80.84;98258.25;5021552;28;20659;-66
2022/01/20 10:17:43;;;;;;;10.43;3.80;;;;;;;2.03;80.22;98261.78;5019928;28;20041;-66
2022/01/20 10:20:12;;;;;;;7.25;2.70;;;;;;;2.18;79.95;98271.75;5023649;28;20604;-66
2022/01/20 10:22:56;;;;;;;8.63;3.70;;;;;;;2.24;80.45;98275.56;5025796;28;20578;-66
2022/01/20 10:25:42;;;;;;;7.07;3.65;;;;;;;2.47;79.67;98278.28;5026368;28;20061;-67
2022/01/20 10:28:30;;;;;;;13.40;4.57;;;;;;;2.47;79.31;98265.72;5024332;28;20172;-66
2022/01/20 10:30:57;;;;;;;9.15;3.60;;;;;;;2.15;79.67;98269.41;5023797;28;20044;-66
2022/01/20 10:33:24;;;;;;;11.73;3.65;;;;;;;2.08;80.31;98272.81;5000373;28;20073;-64
2022/01/20 10:35:52;;;;;;;12.18;3.85;;;;;;;2.00;81.01;98266.66;5013739;28;20045;-66
2022/01/20 10:38:31;;;;;;;8.00;3.72;;;;;;;1.99;81.27;98270.34;5029684;28;20049;-64
2022/01/20 10:41:02;;;;;;;16.00;2.97;;;;;;;2.14;81.06;98270.44;5026192;28;20104;-64
2022/01/20 10:43:35;;;;;;;13.43;4.13;;;;;;;2.14;81.21;98265.09;5026118;28;20056;-65
2022/01/20 10:46:47;;;;;;;12.05;4.15;;;;;;;2.22;80.86;98267.72;5016534;28;20715;-65
2022/01/20 10:49:19;;;;;;;13.27;4.28;;;;;;;2.23;81.18;98264.03;5024347;28;20171;-64
2022/01/20 10:52:05;;;;;;;9.60;5.30;;;;;;;2.14;81.60;98265.09;5027236;28;20055;-65
2022/01/20 10:54:42;;;;;;;13.38;4.28;;;;;;;2.21;81.59;98280.25;5024290;28;20156;-65
2022/01/20 10:57:17;;;;;;;10.82;4.47;;;;;;;2.20;81.26;98259.03;5018610;28;20041;-64
2022/01/20 10:59:51;;;;;;;14.50;4.53;;;;;;;2.20;80.24;98251.88;5023582;28;20705;-65
2022/01/20 11:02:29;;;;;;;8.02;3.58;;;;;;;2.28;80.71;98250.16;5046001;28;20083;-65
2022/01/20 11:04:57;;;;;;;7.25;3.78;;;;;;;2.48;80.55;98261.22;5022223;28;20687;-65
2022/01/20 11:07:24;;;;;;;10.93;4.00;;;;;;;2.44;79.84;98255.38;5020463;28;20128;-65
2022/01/20 11:10:11;;;;;;;7.65;3.65;;;;;;;2.34;80.59;98252.09;5019850;28;20049;-64
2022/01/20 11:13:00;;;;;;;12.00;4.25;;;;;;;2.25;80.87;98248.63;5018523;28;20053;-65
2022/01/20 11:15:33;;;;;;;9.23;3.53;;;;;;;2.29;79.72;98252.63;5016902;28;20977;-67
2022/01/20 11:18:03;;;;;;;9.77;4.10;;;;;;;2.30;79.86;98238.28;5043844;28;20048;-65
2022/01/20 11:20:46;;;;;;;6.38;3.47;;;;;;;2.42;79.22;98232.50;5010653;28;20068;-67
2022/01/20 11:23:15;;;;;;;11.63;3.70;;;;;;;2.45;79.25;98222.31;5016078;28;20049;-65
2022/01/20 11:25:47;;;;;;;8.65;4.07;;;;;;;2.46;79.70;98202.56;5022173;28;20452;-68
2022/01/20 11:28:22;;;;;;;4.15;2.55;;;;;;;2.39;79.06;98206.97;5023483;28;20046;-66
2022/01/20 11:31:09;;;;;;;6.60;2.33;;;;;;;2.57;77.96;98225.38;5020597;28;20060;-64
2022/01/20 11:33:47;;;;;;;11.57;3.92;;;;;;;2.64;78.27;98211.28;5022858;28;20052;-63
2022/01/20 11:36:26;;;;;;;8.18;2.75;;;;;;;2.88;78.01;98210.25;5024062;28;20431;-65
2022/01/20 11:39:14;;;;;;;5.72;3.13;;;;;;;2.84;77.14;98211.63;5012566;28;20052;-64
2022/01/20 11:41:49;;;;;;;8.13;2.60;;;;;;;2.64;78.40;98217.47;5023420;28;20042;-65
2022/01/20 11:44:23;;;;;;;7.20;2.60;;;;;;;2.80;76.40;98215.69;5019883;28;20509;-65
2022/01/20 11:46:52;;;;;;;3.40;1.63;;;;;;;2.86;76.11;98209.59;5023461;28;20181;-65
2022/01/20 11:49:20;;;;;;;8.05;3.00;;;;;;;2.76;78.21;98206.34;5024706;28;20048;-66
2022/01/20 11:51:51;;;;;;;7.55;2.35;;;;;;;2.88;77.86;98199.56;5028119;28;20051;-66
2022/01/20 11:54:35;;;;;;;8.77;2.80;;;;;;;2.67;77.80;98200.22;5026917;28;20106;-65
2022/01/20 11:57:10;;;;;;;9.68;3.63;;;;;;;2.59;77.78;98207.31;5023429;28;20493;-65
2022/01/20 11:59:43;;;;;;;7.80;3.17;;;;;;;2.36;79.70;98203.81;5032358;28;20037;-63
2022/01/20 12:02:22;;;;;;;9.70;2.67;;;;;;;2.28;79.23;98194.84;5024294;28;20124;-65
2022/01/20 12:04:51;;;;;;;8.30;2.78;;;;;;;2.28;79.12;98194.03;5021632;28;20143;-64
2022/01/20 12:07:38;;;;;;;6.43;2.83;;;;;;;2.36;78.45;98185.13;5011942;28;20588;-65
2022/01/20 12:10:10;;;;;;;9.25;3.20;;;;;;;2.47;78.12;98190.06;5023949;28;20056;-65
2022/01/20 12:12:39;;;;;;;10.07;3.47;;;;;;;2.53;78.12;98185.81;5020409;28;20057;-64
2022/01/20 12:15:22;;;;;;;6.25;3.17;;;;;;;2.55;77.55;98194.50;5022749;28;20056;-66
2022/01/20 12:17:54;;;;;;;8.95;3.15;;;;;;;2.52;77.76;98224.25;5022448;28;20417;-68
2022/01/20 12:20:24;;;;;;;4.65;1.98;;;;;;;1.84;78.37;98233.66;5024331;28;20048;-66
2022/01/20 12:22:53;;;;;;;6.70;2.67;;;;;;;0.82;81.99;98238.63;5020765;28;20045;-65
2022/01/20 12:25:24;;;;;;;3.47;1.42;;;;;;;0.42;84.36;98233.13;5023582;28;20041;-65
2022/01/20 12:27:50;;;;;;;2.88;1.65;;;;;;;0.43;84.19;98242.78;5022177;28;20042;-65
2022/01/20 12:30:23;;;;;;;3.80;1.17;;;;;;;0.16;85.85;98244.75;5025266;28;20053;-66
2022/01/20 12:33:17;;;;;;;7.57;2.63;;;;;;;0.06;86.35;98236.03;5021766;28;20053;-66
2022/01/20 12:35:52;;;;;;;9.02;2.42;;;;;;;0.11;85.67;98241.75;5021631;28;20064;-67
2022/01/20 12:38:26;;;;;;;7.20;1.65;;;;;;;-0.09;87.28;98249.16;5023935;28;20515;-66
2022/01/20 12:41:28;;;;;;;6.05;1.52;;;;;;;-0.35;88.44;98245.56;5022841;28;20045;-66
2022/01/20 12:44:04;;;;;;;10.02;1.92;;;;;;;-0.37;90.12;98250.22;4999695;28;20545;-65
2022/01/20 12:46:34;;;;;;;3.85;1.90;;;;;;;-0.37;89.07;98260.03;5015551;28;20103;-66
2022/01/20 12:49:11;;;;;;;9.32;2.17;;;;;;;-0.30;88.85;98263.72;5025125;28;20293;-65
2022/01/20 12:51:51;;;;;;;4.32;2.22;;;;;;;-0.64;88.89;98276.03;5023948;28;20053;-66
2022/01/20 12:54:26;;;;;;;7.35;2.03;;;;;;;-0.61;89.18;98274.88;5021779;28;20045;-67
2022/01/20 12:56:57;;;;;;;4.18;1.27;;;;;;;-0.73;89.71;98280.47;5015340;28;20778;-67
2022/01/20 12:59:27;;;;;;;3.78;1.23;;;;;;;-0.71;89.67;98267.84;5014494;28;20034;-66
2022/01/20 13:02:06;;;;;;;2.50;1.15;;;;;;;-0.53;89.71;98269.59;5023241;28;20050;-66
2022/01/20 13:04:35;;;;;;;5.15;1.85;;;;;;;-0.53;89.10;98272.25;5020175;28;20050;-65